Latest Coastal Weather Observations for Red Rocks Point

IDW60701

Issued at 12:02 am WST Sunday 1 March 2015 (issued every 10 minutes, with the page automatically refreshed every 10 minutes)

About coastal observations | Map of coastal stations | Coastal observations for WA | Marine services | Other Formats
Station Details ID: 011053 Name: RED ROCKS POINT Lat: -32.20 Lon: 127.53 Height: 3.1 m
Data from the previous 72 hours. | See also: Recent months for locations in Western Australia
Date/Time
WST
Temp

°C
Wind Pressure Rain
since 9am
mm
Weather Cloud Vis
km
Sea
Height
m
Swell
Dir
 
Speed
knots
Gust
knots
hPa Trend Height
m
Period
s
Dir
01/12:00am 19.6 SE 14 17 1017.6 - 0.0 - - - - - - -
 
Date/Time
WST
Temp

°C
Wind Pressure Rain
since 9am
mm
Weather Cloud Vis
km
Sea
Height
m
Swell
Dir
 
Speed
knots
Gust
knots
hPa Trend Height
m
Period
s
Dir
28/11:30pm 19.8 SE 15 19 1017.7 - 0.0 - - - - - - -
28/11:00pm 19.9 ESE 15 18 1017.9 - 0.0 - - - - - - -
28/10:30pm 19.8 SE 13 16 1018.0 - 0.0 - - - - - - -
28/10:00pm 19.8 SE 14 16 1018.2 - 0.0 - - - - - - -
28/09:30pm 20.0 SE 16 18 1018.5 - 0.0 - - - - - - -
28/09:00pm 20.2 SE 17 21 1018.4 - 0.0 - - - - - - -
28/08:30pm 20.2 SE 18 22 1018.3 - 0.0 - - - - - - -
28/08:00pm 20.4 SE 17 21 1018.2 - 0.0 - - - - - - -
28/07:30pm 20.4 SSE 18 21 1017.9 - 0.0 - - - - - - -
28/07:00pm 20.8 SE 20 23 1017.6 - 0.0 - - - - - - -
28/06:30pm 20.5 SE 17 22 1017.3 - 0.0 - - - - - - -
28/06:00pm 20.5 SSE 19 22 1017.1 - 0.0 - - - - - - -
28/05:30pm 20.8 SSE 19 22 1016.8 - 0.0 - - - - - - -
28/05:00pm 21.1 SSE 19 23 1016.6 - 0.0 - - - - - - -
28/04:30pm 21.2 SSE 18 23 1016.3 - 0.0 - - - - - - -
28/04:00pm 22.1 SSE 16 19 1016.1 - 0.0 - - - - - - -
28/03:30pm 21.8 SSE 15 17 1016.0 - 0.0 - - - - - - -
28/03:00pm 22.6 SSE 14 16 1015.9 - 0.0 - - - - - - -
28/02:30pm 22.3 SSE 15 17 1015.7 - 0.0 - - - - - - -
28/02:00pm 22.7 SSE 15 18 1015.6 - 0.0 - - - - - - -
28/01:30pm 22.4 S 16 20 1015.6 - 0.0 - - - - - - -
28/01:00pm 23.3 S 17 21 1015.7 - 0.0 - - - - - - -
28/12:30pm 23.6 S 15 18 1015.6 - 0.0 - - - - - - -
28/12:00pm 23.4 S 17 21 1015.5 - 0.0 - - - - - - -
28/11:30am 22.8 S 18 21 1015.3 - 0.0 - - - - - - -
28/11:00am 23.6 S 18 21 1015.1 - 0.0 - - - - - - -
28/10:30am 22.2 S 18 22 1014.8 - 0.0 - - - - - - -
28/10:00am 22.6 S 18 22 1014.6 - 0.0 - - - - - - -
28/09:00am 22.9 S 19 24 1013.7 - 0.0 - - - - - - -
28/08:30am 21.6 S 22 25 1013.3 - 0.0 - - - - - - -
28/08:00am 21.0 S 18 25 1013.0 - 0.0 - - - - - - -
28/07:30am 21.0 S 19 24 1012.4 - 0.0 - - - - - - -
28/07:00am 21.0 S 19 23 1011.9 - 0.0 - - - - - - -
28/06:30am 20.8 S 21 25 1011.4 - 0.0 - - - - - - -
28/06:00am 21.2 S 19 23 1010.7 - 0.0 - - - - - - -
28/05:30am 21.5 S 16 21 1010.2 - 0.0 - - - - - - -
28/05:00am 21.8 SSW 17 23 1009.5 - 0.0 - - - - - - -
28/04:30am 22.2 S 15 20 1008.9 - 0.0 - - - - - - -
28/04:00am 22.1 S 15 19 1008.4 - 0.0 - - - - - - -
28/03:30am 22.0 SSW 14 19 1008.0 - 0.0 - - - - - - -
28/03:00am 22.2 SSW 15 22 1007.4 - 0.0 - - - - - - -
28/02:30am 22.4 SSW 11 15 1007.1 - 0.0 - - - - - - -
28/02:00am 22.3 SSW 11 15 1006.9 - 0.0 - - - - - - -
28/01:30am 22.1 SW 9 14 1007.1 - 0.0 - - - - - - -
28/01:00am 22.2 SSW 10 14 1006.9 - 0.0 - - - - - - -
28/12:30am 22.0 SW 7 11 1007.0 - 0.0 - - - - - - -
28/12:00am 22.0 SW 8 11 1007.0 - 0.0 - - - - - - -
 
Date/Time
WST
Temp

°C
Wind Pressure Rain
since 9am
mm
Weather Cloud Vis
km
Sea
Height
m
Swell
Dir
 
Speed
knots
Gust
knots
hPa Trend Height
m
Period
s
Dir
27/11:30pm 22.1 SW 7 9 1006.9 - 0.0 - - - - - - -
27/11:00pm 22.2 SW 5 7 1006.6 - 0.0 - - - - - - -
27/10:00pm 22.7 SSW 6 7 1006.0 - 0.0 - - - - - - -
27/09:30pm 22.8 CALM 0 0 1006.4 - 0.0 - - - - - - -
27/09:00pm 23.1 S 1 5 1005.8 - 0.0 - - - - - - -
27/08:30pm 23.0 S 7 9 1005.1 - 0.0 - - - - - - -
27/08:00pm 23.1 SSW 7 12 1006.0 - 0.0 - - - - - - -
27/07:30pm 23.2 CALM 0 0 1005.7 - 0.0 - - - - - - -
27/07:00pm 23.3 S 6 8 1004.8 - 0.0 - - - - - - -
27/06:30pm 23.2 S 5 6 1004.0 - 0.0 - - - - - - -
27/06:00pm 23.5 S 6 7 1003.4 - 0.0 - - - - - - -
27/05:30pm 23.9 S 7 8 1003.5 - 0.0 - - - - - - -
27/05:00pm 24.8 S 9 10 1003.1 - 0.0 - - - - - - -
27/04:30pm 25.5 S 9 11 1002.8 - 0.0 - - - - - - -
27/04:00pm 25.9 S 11 13 1002.9 - 0.0 - - - - - - -
27/03:30pm 26.8 S 6 9 1003.0 - 0.0 - - - - - - -
27/03:00pm 27.1 S 6 8 1002.7 - 0.0 - - - - - - -
27/02:30pm 27.3 SSE 4 5 1002.7 - 0.0 - - - - - - -
27/02:00pm 27.7 SE 4 5 1002.8 - 0.0 - - - - - - -
27/01:30pm 27.1 E 3 4 1003.0 - 0.0 - - - - - - -
27/01:00pm 27.7 S 6 8 1002.9 - 0.0 - - - - - - -
27/12:30pm 28.4 SSE 8 9 1002.7 - 0.0 - - - - - - -
27/11:30am 33.5 WNW 9 15 1002.6 - 0.0 - - - - - - -
27/11:00am 32.2 NW 11 15 1003.0 - 0.0 - - - - - - -
27/10:30am 30.7 NNW 11 16 1003.5 - 0.0 - - - - - - -
27/10:00am 29.2 N 11 17 1003.9 - 0.0 - - - - - - -
27/09:30am 27.8 N 11 15 1004.2 - 0.0 - - - - - - -
27/09:00am 26.0 N 11 16 1004.5 - 15.0 - - - - - - -
27/08:30am 24.6 NNE 11 17 1004.8 - 15.0 - - - - - - -
27/08:00am 23.6 NNE 10 13 1005.3 - 15.0 - - - - - - -
27/07:30am 22.3 ENE 13 17 1005.7 - 15.0 - - - - - - -
27/07:00am 21.8 E 14 16 1006.0 - 15.0 - - - - - - -
27/06:30am 21.5 E 14 16 1006.0 - 15.0 - - - - - - -
27/05:30am 20.0 NNE 6 8 1006.0 - 13.0 - - - - - - -
27/05:00am 20.0 NE 5 7 1005.6 - 13.0 - - - - - - -
27/04:30am 20.5 NE 7 8 1005.7 - 13.0 - - - - - - -
27/04:00am 20.8 ENE 10 11 1005.8 - 13.0 - - - - - - -
27/03:30am 20.1 E 8 10 1006.0 - 12.8 - - - - - - -
27/03:00am 19.2 NNE 2 4 1006.9 - 12.0 - - - - - - -
27/02:30am 19.2 N 4 6 1007.5 - 10.6 - - - - - - -
27/02:00am 19.3 NW 8 11 1008.5 - 7.2 - - - - - - -
27/01:30am 19.0 WNW 11 17 1008.1 - 4.0 - - - - - - -
27/01:00am 18.7 NW 8 11 1007.7 - 1.8 - - - - - - -
27/12:30am 23.2 N 6 11 1007.2 - 0.2 - - - - - - -
27/12:00am 23.3 WNW 5 7 1007.1 - 0.0 - - - - - - -
 
Date/Time
WST
Temp

°C
Wind Pressure Rain
since 9am
mm
Weather Cloud Vis
km
Sea
Height
m
Swell
Dir
 
Speed
knots
Gust
knots
hPa Trend Height
m
Period
s
Dir
26/11:30pm 23.4 E 7 9 1005.8 - 0.0 - - - - - - -
26/11:00pm 23.5 ESE 4 5 1006.2 - 0.0 - - - - - - -
26/10:30pm 23.6 ENE 9 10 1005.6 - 0.0 - - - - - - -
26/10:00pm 23.7 ENE 8 9 1005.6 - 0.0 - - - - - - -
26/09:30pm 23.6 E 8 9 1005.7 - 0.0 - - - - - - -
26/09:00pm 23.7 ENE 10 11 1005.9 - 0.0 - - - - - - -
26/08:30pm 24.1 ENE 10 11 1006.0 - 0.0 - - - - - - -
26/08:00pm 24.0 E 12 13 1005.7 - 0.0 - - - - - - -
26/07:30pm 24.1 ENE 13 15 1005.4 - 0.0 - - - - - - -
26/07:00pm 24.2 ENE 15 17 1005.3 - 0.0 - - - - - - -
26/06:00pm 24.5 ENE 12 15 1004.9 - 0.0 - - - - - - -
26/05:30pm 25.0 E 12 15 1005.2 - 0.0 - - - - - - -
26/05:00pm 25.3 ENE 10 13 1005.5 - 0.0 - - - - - - -
26/04:00pm 25.8 ENE 10 13 1005.6 - 0.0 - - - - - - -
26/03:30pm 26.5 ENE 11 15 1005.9 - 0.0 - - - - - - -
26/03:00pm 26.5 E 9 13 1006.1 - 0.0 - - - - - - -
26/02:30pm 26.1 ESE 12 15 1006.3 - 0.0 - - - - - - -
26/02:00pm 25.8 ESE 11 13 1006.8 - 0.0 - - - - - - -
26/01:30pm 25.7 E 14 16 1007.2 - 0.0 - - - - - - -
26/01:00pm 25.7 E 11 14 1007.6 - 0.0 - - - - - - -
26/12:30pm 27.3 E 8 10 1008.0 - 0.0 - - - - - - -
26/12:00pm 26.2 E 8 11 1008.5 - 0.0 - - - - - - -
26/11:30am 26.0 E 9 11 1008.9 - 0.0 - - - - - - -
26/11:00am 25.4 E 10 13 1009.1 - 0.0 - - - - - - -
26/10:30am 26.0 E 8 10 1009.8 - 0.0 - - - - - - -
26/10:00am 27.8 NE 8 11 1010.2 - 0.0 - - - - - - -
26/09:30am 31.6 N 8 11 1010.3 - 0.0 - - - - - - -
26/09:00am 30.4 N 7 10 1010.7 - 0.0 - - - - - - -
26/08:30am 29.0 N 7 11 1010.7 - 0.0 - - - - - - -
26/08:00am 28.7 N 10 14 1010.7 - 0.0 - - - - - - -
26/07:30am 29.1 N 10 16 1010.7 - 0.0 - - - - - - -
26/07:00am 26.9 NNE 7 11 1010.6 - 0.0 - - - - - - -
26/06:30am 23.7 ENE 5 7 1010.5 - 0.0 - - - - - - -
26/06:00am 22.8 N 7 9 1010.3 - 0.0 - - - - - - -
26/05:00am 19.9 NE 6 7 1009.4 - 0.0 - - - - - - -
26/04:30am 20.1 NNE 4 5 1009.6 - 0.0 - - - - - - -
26/04:00am 20.7 NNE 6 7 1009.4 - 0.0 - - - - - - -
26/03:30am 20.9 NNE 6 6 1009.2 - 0.0 - - - - - - -
26/03:00am 20.8 NE 6 6 1009.2 - 0.0 - - - - - - -
26/02:30am 20.8 NE 5 6 1009.2 - 0.0 - - - - - - -
26/02:00am 21.1 NE 7 8 1009.2 - 0.0 - - - - - - -
26/01:30am 20.9 NE 6 7 1009.4 - 0.0 - - - - - - -
26/01:00am 21.6 NE 8 9 1009.6 - 0.0 - - - - - - -
26/12:30am 22.4 ENE 9 11 1010.0 - 0.0 - - - - - - -

Other Formats:

Comma delimited format used in spreadsheet applications
http://www.bom.gov.au/fwo/IDW60701/IDW60701.94644.axf

JavaScript Object Notation format (JSON) in row-major order
http://www.bom.gov.au/fwo/IDW60701/IDW60701.94644.json